sensor_id;sensor_type;location;lat;lon;timestamp;temperature;humidity
5578;DHT22;2811;51.900;10.734;2023-08-07T00:00:25;15.50;99.90
5578;DHT22;2811;51.900;10.734;2023-08-07T00:02:52;15.50;99.90
5578;DHT22;2811;51.900;10.734;2023-08-07T00:05:20;15.50;99.90
5578;DHT22;2811;51.900;10.734;2023-08-07T00:07:47;15.50;99.90
5578;DHT22;2811;51.900;10.734;2023-08-07T00:10:14;15.50;99.90
5578;DHT22;2811;51.900;10.734;2023-08-07T00:12:41;15.50;99.90
5578;DHT22;2811;51.900;10.734;2023-08-07T00:15:09;15.50;99.90
5578;DHT22;2811;51.900;10.734;2023-08-07T00:17:36;15.40;99.90
5578;DHT22;2811;51.900;10.734;2023-08-07T00:20:04;15.40;99.90
5578;DHT22;2811;51.900;10.734;2023-08-07T00:22:32;15.30;99.90
5578;DHT22;2811;51.900;10.734;2023-08-07T00:24:59;15.30;99.90
5578;DHT22;2811;51.900;10.734;2023-08-07T00:27:26;15.40;99.90
5578;DHT22;2811;51.900;10.734;2023-08-07T00:29:53;15.40;99.90
5578;DHT22;2811;51.900;10.734;2023-08-07T00:32:20;15.40;99.90
5578;DHT22;2811;51.900;10.734;2023-08-07T00:34:46;15.40;99.90
5578;DHT22;2811;51.900;10.734;2023-08-07T00:37:13;15.40;99.90
5578;DHT22;2811;51.900;10.734;2023-08-07T00:39:42;15.40;99.90
5578;DHT22;2811;51.900;10.734;2023-08-07T00:42:08;15.40;99.90
5578;DHT22;2811;51.900;10.734;2023-08-07T00:44:35;15.40;99.90
5578;DHT22;2811;51.900;10.734;2023-08-07T00:47:02;15.40;99.90
5578;DHT22;2811;51.900;10.734;2023-08-07T00:49:29;15.50;99.90
5578;DHT22;2811;51.900;10.734;2023-08-07T00:51:56;15.50;99.90
5578;DHT22;2811;51.900;10.734;2023-08-07T00:54:23;15.50;99.90
5578;DHT22;2811;51.900;10.734;2023-08-07T00:56:53;15.60;99.90
5578;DHT22;2811;51.900;10.734;2023-08-07T00:59:20;15.60;99.90
5578;DHT22;2811;51.900;10.734;2023-08-07T01:01:47;15.60;99.90
5578;DHT22;2811;51.900;10.734;2023-08-07T01:04:15;15.60;99.90
5578;DHT22;2811;51.900;10.734;2023-08-07T01:06:41;15.70;99.90
5578;DHT22;2811;51.900;10.734;2023-08-07T01:09:08;15.50;99.90
5578;DHT22;2811;51.900;10.734;2023-08-07T01:11:43;15.60;99.90
5578;DHT22;2811;51.900;10.734;2023-08-07T01:14:19;15.60;99.90
5578;DHT22;2811;51.900;10.734;2023-08-07T01:16:53;15.60;99.90
5578;DHT22;2811;51.900;10.734;2023-08-07T01:19:24;15.60;99.90
5578;DHT22;2811;51.900;10.734;2023-08-07T01:22:04;15.60;99.90
5578;DHT22;2811;51.900;10.734;2023-08-07T01:24:31;15.70;99.90
5578;DHT22;2811;51.900;10.734;2023-08-07T01:27:00;15.80;99.90
5578;DHT22;2811;51.900;10.734;2023-08-07T01:29:35;15.80;99.90
5578;DHT22;2811;51.900;10.734;2023-08-07T01:32:07;15.90;99.90
5578;DHT22;2811;51.900;10.734;2023-08-07T01:34:36;15.90;99.90
5578;DHT22;2811;51.900;10.734;2023-08-07T01:37:07;15.90;99.90
5578;DHT22;2811;51.900;10.734;2023-08-07T01:39:37;15.80;99.90
5578;DHT22;2811;51.900;10.734;2023-08-07T01:42:04;15.70;99.90
5578;DHT22;2811;51.900;10.734;2023-08-07T01:44:32;15.80;99.90
5578;DHT22;2811;51.900;10.734;2023-08-07T01:46:58;15.80;99.90
5578;DHT22;2811;51.900;10.734;2023-08-07T01:49:25;15.80;99.90
5578;DHT22;2811;51.900;10.734;2023-08-07T01:51:52;15.80;99.90
5578;DHT22;2811;51.900;10.734;2023-08-07T01:54:20;15.80;99.90
5578;DHT22;2811;51.900;10.734;2023-08-07T01:56:46;15.70;99.90
5578;DHT22;2811;51.900;10.734;2023-08-07T01:59:13;15.80;99.90
5578;DHT22;2811;51.900;10.734;2023-08-07T02:01:40;15.70;99.90
5578;DHT22;2811;51.900;10.734;2023-08-07T02:04:07;15.70;99.90
5578;DHT22;2811;51.900;10.734;2023-08-07T02:06:33;15.70;99.90
5578;DHT22;2811;51.900;10.734;2023-08-07T02:09:00;15.70;99.90
5578;DHT22;2811;51.900;10.734;2023-08-07T02:11:28;15.70;99.90
5578;DHT22;2811;51.900;10.734;2023-08-07T02:13:55;15.60;99.90
5578;DHT22;2811;51.900;10.734;2023-08-07T02:16:21;15.60;99.90
5578;DHT22;2811;51.900;10.734;2023-08-07T02:18:48;15.50;99.90
5578;DHT22;2811;51.900;10.734;2023-08-07T02:21:15;15.50;99.90
5578;DHT22;2811;51.900;10.734;2023-08-07T02:23:42;15.50;99.90
5578;DHT22;2811;51.900;10.734;2023-08-07T02:26:09;15.50;99.90
5578;DHT22;2811;51.900;10.734;2023-08-07T02:28:37;15.50;99.90
5578;DHT22;2811;51.900;10.734;2023-08-07T02:31:04;15.50;99.90
5578;DHT22;2811;51.900;10.734;2023-08-07T02:33:30;15.50;99.90
5578;DHT22;2811;51.900;10.734;2023-08-07T02:35:56;15.50;99.90
5578;DHT22;2811;51.900;10.734;2023-08-07T02:38:25;15.40;99.90
5578;DHT22;2811;51.900;10.734;2023-08-07T02:40:52;15.40;99.90
5578;DHT22;2811;51.900;10.734;2023-08-07T02:43:19;15.40;99.90
5578;DHT22;2811;51.900;10.734;2023-08-07T02:45:47;15.30;99.90
5578;DHT22;2811;51.900;10.734;2023-08-07T02:48:13;15.30;99.90
5578;DHT22;2811;51.900;10.734;2023-08-07T02:50:40;15.60;99.90
5578;DHT22;2811;51.900;10.734;2023-08-07T02:53:07;15.30;99.90
5578;DHT22;2811;51.900;10.734;2023-08-07T02:55:33;15.30;99.90
5578;DHT22;2811;51.900;10.734;2023-08-07T02:58:00;15.30;99.90
5578;DHT22;2811;51.900;10.734;2023-08-07T03:00:27;15.30;99.90
5578;DHT22;2811;51.900;10.734;2023-08-07T03:02:55;15.40;99.90
5578;DHT22;2811;51.900;10.734;2023-08-07T03:05:22;15.40;99.90
5578;DHT22;2811;51.900;10.734;2023-08-07T03:07:49;15.40;99.90
5578;DHT22;2811;51.900;10.734;2023-08-07T03:10:15;15.40;99.90
5578;DHT22;2811;51.900;10.734;2023-08-07T03:12:42;15.40;99.90
5578;DHT22;2811;51.900;10.734;2023-08-07T03:15:09;15.40;99.90
5578;DHT22;2811;51.900;10.734;2023-08-07T03:17:36;15.40;99.90
5578;DHT22;2811;51.900;10.734;2023-08-07T03:20:05;15.40;99.90
5578;DHT22;2811;51.900;10.734;2023-08-07T03:22:32;15.50;99.90
5578;DHT22;2811;51.900;10.734;2023-08-07T03:24:59;15.40;99.90
5578;DHT22;2811;51.900;10.734;2023-08-07T03:27:25;15.50;99.90
5578;DHT22;2811;51.900;10.734;2023-08-07T03:29:52;15.30;99.90
5578;DHT22;2811;51.900;10.734;2023-08-07T03:32:21;15.40;99.90
5578;DHT22;2811;51.900;10.734;2023-08-07T03:34:47;15.30;99.90
5578;DHT22;2811;51.900;10.734;2023-08-07T03:37:15;15.30;99.90
5578;DHT22;2811;51.900;10.734;2023-08-07T03:39:42;15.30;99.90
5578;DHT22;2811;51.900;10.734;2023-08-07T03:42:13;15.30;99.90
5578;DHT22;2811;51.900;10.734;2023-08-07T03:44:40;15.30;99.90
5578;DHT22;2811;51.900;10.734;2023-08-07T03:47:07;15.40;99.90
5578;DHT22;2811;51.900;10.734;2023-08-07T03:49:34;15.30;99.90
5578;DHT22;2811;51.900;10.734;2023-08-07T03:52:01;15.30;99.90
5578;DHT22;2811;51.900;10.734;2023-08-07T03:54:29;15.40;99.90
5578;DHT22;2811;51.900;10.734;2023-08-07T03:56:56;15.50;99.90
5578;DHT22;2811;51.900;10.734;2023-08-07T03:59:23;15.40;99.90
5578;DHT22;2811;51.900;10.734;2023-08-07T04:01:49;15.30;99.90
5578;DHT22;2811;51.900;10.734;2023-08-07T04:04:16;15.30;99.90
5578;DHT22;2811;51.900;10.734;2023-08-07T04:06:43;15.30;99.90
5578;DHT22;2811;51.900;10.734;2023-08-07T04:09:10;15.40;99.90
5578;DHT22;2811;51.900;10.734;2023-08-07T04:11:38;15.30;99.90
5578;DHT22;2811;51.900;10.734;2023-08-07T04:14:06;15.30;99.90
5578;DHT22;2811;51.900;10.734;2023-08-07T04:16:33;15.40;99.90
5578;DHT22;2811;51.900;10.734;2023-08-07T04:19:00;15.40;99.90
5578;DHT22;2811;51.900;10.734;2023-08-07T04:21:26;15.40;99.90
5578;DHT22;2811;51.900;10.734;2023-08-07T04:23:53;15.40;99.90
5578;DHT22;2811;51.900;10.734;2023-08-07T04:26:20;15.40;99.90
5578;DHT22;2811;51.900;10.734;2023-08-07T04:28:48;15.40;99.90
5578;DHT22;2811;51.900;10.734;2023-08-07T04:31:15;15.40;99.90
5578;DHT22;2811;51.900;10.734;2023-08-07T04:33:41;15.50;99.90
5578;DHT22;2811;51.900;10.734;2023-08-07T04:36:08;15.50;99.90
5578;DHT22;2811;51.900;10.734;2023-08-07T04:38:35;15.50;99.90
5578;DHT22;2811;51.900;10.734;2023-08-07T04:41:01;15.40;99.90
5578;DHT22;2811;51.900;10.734;2023-08-07T04:43:28;15.40;99.90
5578;DHT22;2811;51.900;10.734;2023-08-07T04:45:57;15.50;99.90
5578;DHT22;2811;51.900;10.734;2023-08-07T04:48:23;15.40;99.90
5578;DHT22;2811;51.900;10.734;2023-08-07T04:50:51;15.40;99.90
5578;DHT22;2811;51.900;10.734;2023-08-07T04:53:17;15.50;99.90
5578;DHT22;2811;51.900;10.734;2023-08-07T04:55:44;15.50;99.90
5578;DHT22;2811;51.900;10.734;2023-08-07T04:58:12;15.60;99.90
5578;DHT22;2811;51.900;10.734;2023-08-07T05:00:39;15.60;99.90
5578;DHT22;2811;51.900;10.734;2023-08-07T05:03:07;15.60;99.90
5578;DHT22;2811;51.900;10.734;2023-08-07T05:05:34;15.70;99.90
5578;DHT22;2811;51.900;10.734;2023-08-07T05:08:00;15.80;99.90
5578;DHT22;2811;51.900;10.734;2023-08-07T05:10:27;15.80;99.90
5578;DHT22;2811;51.900;10.734;2023-08-07T05:12:54;15.90;99.90
5578;DHT22;2811;51.900;10.734;2023-08-07T05:15:21;15.90;99.90
5578;DHT22;2811;51.900;10.734;2023-08-07T05:17:49;15.90;99.90
5578;DHT22;2811;51.900;10.734;2023-08-07T05:20:17;15.90;99.90
5578;DHT22;2811;51.900;10.734;2023-08-07T05:22:44;16.10;99.90
5578;DHT22;2811;51.900;10.734;2023-08-07T05:25:11;16.20;99.90
5578;DHT22;2811;51.900;10.734;2023-08-07T05:27:41;16.10;99.90
5578;DHT22;2811;51.900;10.734;2023-08-07T05:30:08;16.10;99.90
5578;DHT22;2811;51.900;10.734;2023-08-07T05:32:35;16.10;99.90
5578;DHT22;2811;51.900;10.734;2023-08-07T05:35:03;16.10;99.90
5578;DHT22;2811;51.900;10.734;2023-08-07T05:37:31;16.10;99.90
5578;DHT22;2811;51.900;10.734;2023-08-07T05:39:58;16.20;99.90
5578;DHT22;2811;51.900;10.734;2023-08-07T05:42:25;16.20;99.90
5578;DHT22;2811;51.900;10.734;2023-08-07T05:44:52;16.10;99.90
5578;DHT22;2811;51.900;10.734;2023-08-07T05:47:18;16.10;99.90
5578;DHT22;2811;51.900;10.734;2023-08-07T05:49:45;16.10;99.90
5578;DHT22;2811;51.900;10.734;2023-08-07T05:52:12;16.10;99.90
5578;DHT22;2811;51.900;10.734;2023-08-07T05:54:40;16.10;99.90
5578;DHT22;2811;51.900;10.734;2023-08-07T05:57:07;16.20;99.90
5578;DHT22;2811;51.900;10.734;2023-08-07T05:59:33;16.20;99.90
5578;DHT22;2811;51.900;10.734;2023-08-07T06:02:02;16.30;99.90
5578;DHT22;2811;51.900;10.734;2023-08-07T06:04:28;16.40;99.90
5578;DHT22;2811;51.900;10.734;2023-08-07T06:06:55;16.50;99.90
5578;DHT22;2811;51.900;10.734;2023-08-07T06:09:22;16.60;99.90
5578;DHT22;2811;51.900;10.734;2023-08-07T06:11:50;16.60;99.90
5578;DHT22;2811;51.900;10.734;2023-08-07T06:14:17;16.80;99.90
5578;DHT22;2811;51.900;10.734;2023-08-07T06:16:43;16.90;99.90
5578;DHT22;2811;51.900;10.734;2023-08-07T06:19:10;17.00;99.90
5578;DHT22;2811;51.900;10.734;2023-08-07T06:21:37;17.10;99.90
5578;DHT22;2811;51.900;10.734;2023-08-07T06:24:04;17.10;99.90
5578;DHT22;2811;51.900;10.734;2023-08-07T06:26:31;17.30;99.90
5578;DHT22;2811;51.900;10.734;2023-08-07T06:28:59;17.50;99.90
5578;DHT22;2811;51.900;10.734;2023-08-07T06:31:26;17.60;99.90
5578;DHT22;2811;51.900;10.734;2023-08-07T06:33:53;17.50;99.90
5578;DHT22;2811;51.900;10.734;2023-08-07T06:36:19;17.60;99.90
5578;DHT22;2811;51.900;10.734;2023-08-07T06:38:45;17.50;99.90
5578;DHT22;2811;51.900;10.734;2023-08-07T06:41:12;17.20;99.90
5578;DHT22;2811;51.900;10.734;2023-08-07T06:43:39;17.00;99.90
5578;DHT22;2811;51.900;10.734;2023-08-07T06:46:07;17.00;99.90
5578;DHT22;2811;51.900;10.734;2023-08-07T06:48:34;16.80;99.90
5578;DHT22;2811;51.900;10.734;2023-08-07T06:51:00;16.70;99.90
5578;DHT22;2811;51.900;10.734;2023-08-07T06:53:27;16.60;99.90
5578;DHT22;2811;51.900;10.734;2023-08-07T06:55:54;16.60;99.90
5578;DHT22;2811;51.900;10.734;2023-08-07T06:58:21;16.70;99.90
5578;DHT22;2811;51.900;10.734;2023-08-07T07:00:47;16.80;99.90
5578;DHT22;2811;51.900;10.734;2023-08-07T07:03:15;16.80;99.90
5578;DHT22;2811;51.900;10.734;2023-08-07T07:05:42;16.90;99.90
5578;DHT22;2811;51.900;10.734;2023-08-07T07:08:09;16.80;99.90
5578;DHT22;2811;51.900;10.734;2023-08-07T07:10:36;16.80;99.90
5578;DHT22;2811;51.900;10.734;2023-08-07T07:13:02;17.00;99.90
5578;DHT22;2811;51.900;10.734;2023-08-07T07:15:29;17.30;99.90
5578;DHT22;2811;51.900;10.734;2023-08-07T07:17:56;17.60;99.90
5578;DHT22;2811;51.900;10.734;2023-08-07T07:20:24;17.70;99.90
5578;DHT22;2811;51.900;10.734;2023-08-07T07:22:52;17.90;99.90
5578;DHT22;2811;51.900;10.734;2023-08-07T07:25:19;18.10;99.90
5578;DHT22;2811;51.900;10.734;2023-08-07T07:27:45;18.30;99.90
5578;DHT22;2811;51.900;10.734;2023-08-07T07:30:12;18.40;99.90
5578;DHT22;2811;51.900;10.734;2023-08-07T07:32:39;18.50;99.90
5578;DHT22;2811;51.900;10.734;2023-08-07T07:35:06;18.70;99.90
5578;DHT22;2811;51.900;10.734;2023-08-07T07:37:34;18.70;99.90
5578;DHT22;2811;51.900;10.734;2023-08-07T07:40:01;18.60;99.90
5578;DHT22;2811;51.900;10.734;2023-08-07T07:42:28;18.20;99.90
5578;DHT22;2811;51.900;10.734;2023-08-07T07:44:54;18.10;99.90
5578;DHT22;2811;51.900;10.734;2023-08-07T07:47:21;17.90;99.90
5578;DHT22;2811;51.900;10.734;2023-08-07T07:49:48;17.80;99.90
5578;DHT22;2811;51.900;10.734;2023-08-07T07:52:15;17.70;99.90
5578;DHT22;2811;51.900;10.734;2023-08-07T07:54:43;17.60;99.90
5578;DHT22;2811;51.900;10.734;2023-08-07T07:57:10;17.60;99.90
5578;DHT22;2811;51.900;10.734;2023-08-07T07:59:36;17.40;99.90
5578;DHT22;2811;51.900;10.734;2023-08-07T08:02:03;17.30;99.90
5578;DHT22;2811;51.900;10.734;2023-08-07T08:04:30;17.40;99.90
5578;DHT22;2811;51.900;10.734;2023-08-07T08:06:57;17.60;99.90
5578;DHT22;2811;51.900;10.734;2023-08-07T08:09:24;17.90;99.90
5578;DHT22;2811;51.900;10.734;2023-08-07T08:11:53;18.30;99.90
5578;DHT22;2811;51.900;10.734;2023-08-07T08:14:20;18.60;99.90
5578;DHT22;2811;51.900;10.734;2023-08-07T08:16:46;18.60;99.90
5578;DHT22;2811;51.900;10.734;2023-08-07T08:19:13;18.80;99.90
5578;DHT22;2811;51.900;10.734;2023-08-07T08:21:41;19.20;99.90
5578;DHT22;2811;51.900;10.734;2023-08-07T08:24:08;19.60;99.90
5578;DHT22;2811;51.900;10.734;2023-08-07T08:26:35;19.70;99.90
5578;DHT22;2811;51.900;10.734;2023-08-07T08:29:03;19.60;99.90
5578;DHT22;2811;51.900;10.734;2023-08-07T08:31:31;19.60;99.90
5578;DHT22;2811;51.900;10.734;2023-08-07T08:33:57;19.60;99.90
5578;DHT22;2811;51.900;10.734;2023-08-07T08:36:24;19.50;99.90
5578;DHT22;2811;51.900;10.734;2023-08-07T08:38:51;19.60;99.90
5578;DHT22;2811;51.900;10.734;2023-08-07T08:41:19;19.50;99.90
5578;DHT22;2811;51.900;10.734;2023-08-07T08:43:46;19.70;99.90
5578;DHT22;2811;51.900;10.734;2023-08-07T08:46:15;20.00;99.90
5578;DHT22;2811;51.900;10.734;2023-08-07T08:48:49;19.90;99.90
5578;DHT22;2811;51.900;10.734;2023-08-07T08:51:17;19.70;99.90
5578;DHT22;2811;51.900;10.734;2023-08-07T08:53:45;19.70;99.90
5578;DHT22;2811;51.900;10.734;2023-08-07T08:56:12;19.60;99.90
5578;DHT22;2811;51.900;10.734;2023-08-07T08:58:39;19.60;99.90
5578;DHT22;2811;51.900;10.734;2023-08-07T09:01:07;19.60;99.90
5578;DHT22;2811;51.900;10.734;2023-08-07T09:03:36;19.40;99.90
5578;DHT22;2811;51.900;10.734;2023-08-07T09:06:03;19.20;99.90
5578;DHT22;2811;51.900;10.734;2023-08-07T09:08:32;19.10;99.90
5578;DHT22;2811;51.900;10.734;2023-08-07T09:11:01;19.50;99.90
5578;DHT22;2811;51.900;10.734;2023-08-07T09:13:29;19.50;99.90
5578;DHT22;2811;51.900;10.734;2023-08-07T09:15:58;19.60;99.90
5578;DHT22;2811;51.900;10.734;2023-08-07T09:18:26;19.30;99.90
5578;DHT22;2811;51.900;10.734;2023-08-07T09:20:54;18.60;99.90
5578;DHT22;2811;51.900;10.734;2023-08-07T09:23:24;18.00;99.90
5578;DHT22;2811;51.900;10.734;2023-08-07T09:25:59;17.70;99.90
5578;DHT22;2811;51.900;10.734;2023-08-07T09:28:26;17.50;99.90
5578;DHT22;2811;51.900;10.734;2023-08-07T09:30:54;17.60;99.90
5578;DHT22;2811;51.900;10.734;2023-08-07T09:33:24;17.70;99.90
5578;DHT22;2811;51.900;10.734;2023-08-07T09:35:53;18.10;99.90
5578;DHT22;2811;51.900;10.734;2023-08-07T09:38:23;18.40;99.90
5578;DHT22;2811;51.900;10.734;2023-08-07T09:40:50;18.60;99.90
5578;DHT22;2811;51.900;10.734;2023-08-07T09:43:21;18.70;99.90
5578;DHT22;2811;51.900;10.734;2023-08-07T09:45:48;18.60;99.90
5578;DHT22;2811;51.900;10.734;2023-08-07T09:48:22;18.50;99.90
5578;DHT22;2811;51.900;10.734;2023-08-07T09:50:50;18.80;99.90
5578;DHT22;2811;51.900;10.734;2023-08-07T09:53:18;18.90;99.90
5578;DHT22;2811;51.900;10.734;2023-08-07T09:55:52;19.10;99.90
5578;DHT22;2811;51.900;10.734;2023-08-07T09:58:18;19.00;99.90
5578;DHT22;2811;51.900;10.734;2023-08-07T10:00:46;18.80;99.90
5578;DHT22;2811;51.900;10.734;2023-08-07T10:03:13;18.70;99.90
5578;DHT22;2811;51.900;10.734;2023-08-07T10:05:40;18.90;99.90
5578;DHT22;2811;51.900;10.734;2023-08-07T10:08:07;19.40;99.90
5578;DHT22;2811;51.900;10.734;2023-08-07T10:10:37;19.90;99.90
5578;DHT22;2811;51.900;10.734;2023-08-07T10:13:05;20.00;99.90
5578;DHT22;2811;51.900;10.734;2023-08-07T10:15:33;19.90;99.90
5578;DHT22;2811;51.900;10.734;2023-08-07T10:18:01;20.00;99.90
5578;DHT22;2811;51.900;10.734;2023-08-07T10:20:29;19.90;99.90
5578;DHT22;2811;51.900;10.734;2023-08-07T10:23:00;19.70;99.90
5578;DHT22;2811;51.900;10.734;2023-08-07T10:25:27;19.40;99.90
5578;DHT22;2811;51.900;10.734;2023-08-07T10:27:58;19.20;99.90
5578;DHT22;2811;51.900;10.734;2023-08-07T10:30:26;18.70;99.90
5578;DHT22;2811;51.900;10.734;2023-08-07T10:32:54;18.50;99.90
5578;DHT22;2811;51.900;10.734;2023-08-07T10:35:25;18.70;99.90
5578;DHT22;2811;51.900;10.734;2023-08-07T10:37:52;18.90;99.90
5578;DHT22;2811;51.900;10.734;2023-08-07T10:40:19;18.90;99.90
5578;DHT22;2811;51.900;10.734;2023-08-07T10:42:52;18.80;99.90
5578;DHT22;2811;51.900;10.734;2023-08-07T10:45:23;18.60;99.90
5578;DHT22;2811;51.900;10.734;2023-08-07T10:48:00;17.90;99.90
5578;DHT22;2811;51.900;10.734;2023-08-07T10:50:29;17.10;99.90
5578;DHT22;2811;51.900;10.734;2023-08-07T10:52:56;16.30;99.90
5578;DHT22;2811;51.900;10.734;2023-08-07T10:55:23;15.90;99.90
5578;DHT22;2811;51.900;10.734;2023-08-07T10:57:50;15.60;99.90
5578;DHT22;2811;51.900;10.734;2023-08-07T11:00:22;15.70;99.90
5578;DHT22;2811;51.900;10.734;2023-08-07T11:02:52;16.20;99.90
5578;DHT22;2811;51.900;10.734;2023-08-07T11:05:18;16.60;99.90
5578;DHT22;2811;51.900;10.734;2023-08-07T11:07:45;16.80;99.90
5578;DHT22;2811;51.900;10.734;2023-08-07T11:10:14;17.30;99.90
5578;DHT22;2811;51.900;10.734;2023-08-07T11:12:41;17.70;99.90
5578;DHT22;2811;51.900;10.734;2023-08-07T11:15:12;18.10;99.90
5578;DHT22;2811;51.900;10.734;2023-08-07T11:17:40;18.50;99.90
5578;DHT22;2811;51.900;10.734;2023-08-07T11:20:09;18.80;99.90
5578;DHT22;2811;51.900;10.734;2023-08-07T11:22:38;18.90;99.90
5578;DHT22;2811;51.900;10.734;2023-08-07T11:25:06;18.70;99.90
5578;DHT22;2811;51.900;10.734;2023-08-07T11:27:39;18.60;99.90
5578;DHT22;2811;51.900;10.734;2023-08-07T11:30:07;18.40;99.90
5578;DHT22;2811;51.900;10.734;2023-08-07T11:32:36;18.00;99.90
5578;DHT22;2811;51.900;10.734;2023-08-07T11:35:06;17.90;99.90
5578;DHT22;2811;51.900;10.734;2023-08-07T11:37:33;18.10;99.90
5578;DHT22;2811;51.900;10.734;2023-08-07T11:40:01;18.20;99.90
5578;DHT22;2811;51.900;10.734;2023-08-07T11:42:28;18.40;99.90
5578;DHT22;2811;51.900;10.734;2023-08-07T11:44:55;18.40;99.90
5578;DHT22;2811;51.900;10.734;2023-08-07T11:47:22;18.50;99.90
5578;DHT22;2811;51.900;10.734;2023-08-07T11:49:48;18.50;99.90
5578;DHT22;2811;51.900;10.734;2023-08-07T11:52:17;18.40;99.90
5578;DHT22;2811;51.900;10.734;2023-08-07T11:54:47;18.40;99.90
5578;DHT22;2811;51.900;10.734;2023-08-07T11:57:18;18.40;99.90
5578;DHT22;2811;51.900;10.734;2023-08-07T11:59:49;18.40;99.90
5578;DHT22;2811;51.900;10.734;2023-08-07T12:02:16;18.20;99.90
5578;DHT22;2811;51.900;10.734;2023-08-07T12:04:43;17.70;99.90
5578;DHT22;2811;51.900;10.734;2023-08-07T12:07:10;17.20;99.90
5578;DHT22;2811;51.900;10.734;2023-08-07T12:09:41;16.90;99.90
5578;DHT22;2811;51.900;10.734;2023-08-07T12:12:10;17.00;99.90
5578;DHT22;2811;51.900;10.734;2023-08-07T12:14:38;17.30;99.90
5578;DHT22;2811;51.900;10.734;2023-08-07T12:17:08;17.50;99.90
5578;DHT22;2811;51.900;10.734;2023-08-07T12:19:38;17.80;99.90
5578;DHT22;2811;51.900;10.734;2023-08-07T12:22:06;18.10;99.90
5578;DHT22;2811;51.900;10.734;2023-08-07T12:24:35;18.30;99.90
5578;DHT22;2811;51.900;10.734;2023-08-07T12:27:05;18.60;99.90
5578;DHT22;2811;51.900;10.734;2023-08-07T12:29:32;18.70;99.90
5578;DHT22;2811;51.900;10.734;2023-08-07T12:31:59;18.80;99.90
5578;DHT22;2811;51.900;10.734;2023-08-07T12:34:27;18.90;99.90
5578;DHT22;2811;51.900;10.734;2023-08-07T12:36:54;18.70;99.90
5578;DHT22;2811;51.900;10.734;2023-08-07T12:39:21;18.60;99.90
5578;DHT22;2811;51.900;10.734;2023-08-07T12:41:48;18.70;99.90
5578;DHT22;2811;51.900;10.734;2023-08-07T12:44:16;18.70;99.90
5578;DHT22;2811;51.900;10.734;2023-08-07T12:46:43;18.90;99.90
5578;DHT22;2811;51.900;10.734;2023-08-07T12:49:10;19.10;99.90
5578;DHT22;2811;51.900;10.734;2023-08-07T12:51:36;19.20;99.90
5578;DHT22;2811;51.900;10.734;2023-08-07T12:54:03;19.20;99.90
5578;DHT22;2811;51.900;10.734;2023-08-07T12:56:30;19.30;99.90
5578;DHT22;2811;51.900;10.734;2023-08-07T12:58:57;19.70;99.90
5578;DHT22;2811;51.900;10.734;2023-08-07T13:01:25;19.80;99.90
5578;DHT22;2811;51.900;10.734;2023-08-07T13:03:52;19.50;99.90
5578;DHT22;2811;51.900;10.734;2023-08-07T13:06:19;19.00;99.90
5578;DHT22;2811;51.900;10.734;2023-08-07T13:08:45;18.40;99.90
5578;DHT22;2811;51.900;10.734;2023-08-07T13:11:12;18.30;99.90
5578;DHT22;2811;51.900;10.734;2023-08-07T13:13:39;18.50;99.90
5578;DHT22;2811;51.900;10.734;2023-08-07T13:16:06;19.00;99.90
5578;DHT22;2811;51.900;10.734;2023-08-07T13:18:34;19.00;99.90
5578;DHT22;2811;51.900;10.734;2023-08-07T13:21:01;19.20;99.90
5578;DHT22;2811;51.900;10.734;2023-08-07T13:23:28;19.30;99.90
5578;DHT22;2811;51.900;10.734;2023-08-07T13:25:54;19.20;99.90
5578;DHT22;2811;51.900;10.734;2023-08-07T13:28:21;19.40;99.90
5578;DHT22;2811;51.900;10.734;2023-08-07T13:30:48;19.10;99.90
5578;DHT22;2811;51.900;10.734;2023-08-07T13:33:15;19.20;99.90
5578;DHT22;2811;51.900;10.734;2023-08-07T13:35:43;19.20;99.90
5578;DHT22;2811;51.900;10.734;2023-08-07T13:38:10;18.90;99.90
5578;DHT22;2811;51.900;10.734;2023-08-07T13:40:39;18.80;99.90
5578;DHT22;2811;51.900;10.734;2023-08-07T13:43:06;18.90;99.90
5578;DHT22;2811;51.900;10.734;2023-08-07T13:45:34;19.20;99.90
5578;DHT22;2811;51.900;10.734;2023-08-07T13:48:01;19.20;99.90
5578;DHT22;2811;51.900;10.734;2023-08-07T13:50:29;19.30;99.90
5578;DHT22;2811;51.900;10.734;2023-08-07T13:52:57;19.30;99.90
5578;DHT22;2811;51.900;10.734;2023-08-07T13:55:24;18.50;99.90
5578;DHT22;2811;51.900;10.734;2023-08-07T13:57:50;17.50;99.90
5578;DHT22;2811;51.900;10.734;2023-08-07T14:00:17;16.60;99.90
5578;DHT22;2811;51.900;10.734;2023-08-07T14:02:44;16.20;99.90
5578;DHT22;2811;51.900;10.734;2023-08-07T14:05:11;16.10;99.90
5578;DHT22;2811;51.900;10.734;2023-08-07T14:07:37;16.10;99.90
5578;DHT22;2811;51.900;10.734;2023-08-07T14:10:06;16.20;99.90
5578;DHT22;2811;51.900;10.734;2023-08-07T14:12:33;16.30;99.90
5578;DHT22;2811;51.900;10.734;2023-08-07T14:15:00;16.20;99.90
5578;DHT22;2811;51.900;10.734;2023-08-07T14:17:27;16.30;99.90
5578;DHT22;2811;51.900;10.734;2023-08-07T14:19:53;16.40;99.90
5578;DHT22;2811;51.900;10.734;2023-08-07T14:22:20;16.50;99.90
5578;DHT22;2811;51.900;10.734;2023-08-07T14:24:47;16.50;99.90
5578;DHT22;2811;51.900;10.734;2023-08-07T14:27:15;16.40;99.90
5578;DHT22;2811;51.900;10.734;2023-08-07T14:29:41;16.50;99.90
5578;DHT22;2811;51.900;10.734;2023-08-07T14:32:08;16.60;99.90
5578;DHT22;2811;51.900;10.734;2023-08-07T14:34:35;16.70;99.90
5578;DHT22;2811;51.900;10.734;2023-08-07T14:37:02;16.80;99.90
5578;DHT22;2811;51.900;10.734;2023-08-07T14:39:29;16.90;99.90
5578;DHT22;2811;51.900;10.734;2023-08-07T14:41:55;17.10;99.90
5578;DHT22;2811;51.900;10.734;2023-08-07T14:44:23;17.30;99.90
5578;DHT22;2811;51.900;10.734;2023-08-07T14:46:50;17.40;99.90
5578;DHT22;2811;51.900;10.734;2023-08-07T14:49:17;17.60;99.90
5578;DHT22;2811;51.900;10.734;2023-08-07T14:51:44;17.70;99.90
5578;DHT22;2811;51.900;10.734;2023-08-07T14:54:10;17.90;99.90
5578;DHT22;2811;51.900;10.734;2023-08-07T14:56:37;18.20;99.90
5578;DHT22;2811;51.900;10.734;2023-08-07T14:59:04;18.50;99.90
5578;DHT22;2811;51.900;10.734;2023-08-07T15:01:32;18.70;99.90
5578;DHT22;2811;51.900;10.734;2023-08-07T15:03:59;18.50;99.90
5578;DHT22;2811;51.900;10.734;2023-08-07T15:06:25;18.20;99.90
5578;DHT22;2811;51.900;10.734;2023-08-07T15:08:52;18.10;99.90
5578;DHT22;2811;51.900;10.734;2023-08-07T15:11:19;18.20;99.90
5578;DHT22;2811;51.900;10.734;2023-08-07T15:13:46;18.50;99.90
5578;DHT22;2811;51.900;10.734;2023-08-07T15:16:12;18.60;99.90
5578;DHT22;2811;51.900;10.734;2023-08-07T15:18:41;18.90;99.90
5578;DHT22;2811;51.900;10.734;2023-08-07T15:21:08;19.20;99.90
5578;DHT22;2811;51.900;10.734;2023-08-07T15:23:36;19.30;99.90
5578;DHT22;2811;51.900;10.734;2023-08-07T15:26:03;19.40;99.90
5578;DHT22;2811;51.900;10.734;2023-08-07T15:28:29;19.40;99.90
5578;DHT22;2811;51.900;10.734;2023-08-07T15:30:56;19.40;99.90
5578;DHT22;2811;51.900;10.734;2023-08-07T15:33:23;19.50;99.90
5578;DHT22;2811;51.900;10.734;2023-08-07T15:35:53;19.90;99.90
5578;DHT22;2811;51.900;10.734;2023-08-07T15:38:20;20.10;99.90
5578;DHT22;2811;51.900;10.734;2023-08-07T15:40:46;20.00;99.90
5578;DHT22;2811;51.900;10.734;2023-08-07T15:43:13;19.60;99.90
5578;DHT22;2811;51.900;10.734;2023-08-07T15:45:40;19.50;99.90